Converse, South Carolina
Current Conditions -  °F | °C
As of 9:35 AM on Friday 19 Dec 2014 (Local Time) from KSPA Reporting Station
Clear Clear  
Wind Chill: 44°   Ceiling: Unl
Heat Index: 46°   Visibility: 10mi
Dew Point: 32°   Wind: 5mph
Humidity: 57%   Direction: 40°NE
Pressure: 30.17"   Gusts: NA
Location:  34.99°N, 81.83°W
Report Text: KSPA 191435Z AUTO 04004KT 10SM CLR 08/00 A3017 RMK AO2
Loading
Personal Weather Stations






























Interactive Weather Map New forecast layout! Learn more

10-Day Weather Forecast

Advertisements
Track Severe Weather on mobile